createdAt,value
2019-04-25T05:27:57.415Z,35.30
2019-04-25T05:30:17.890Z,36.10
2019-04-25T05:32:47.798Z,34.70
2019-04-25T05:35:17.850Z,36.10
2019-04-25T05:37:47.781Z,34.90
2019-04-25T05:40:18.316Z,33.70
2019-04-25T05:42:49.637Z,34.40
2019-04-25T05:45:21.294Z,34.80
2019-04-25T05:47:51.136Z,34.60
2019-04-25T05:50:21.994Z,35.60
2019-04-25T05:52:54.049Z,35.60
2019-04-25T05:55:25.016Z,36.20
2019-04-25T05:57:56.127Z,35.30
2019-04-25T06:00:26.874Z,35.70
2019-04-25T06:02:57.060Z,34.80
2019-04-25T06:05:27.632Z,34.10
2019-04-25T06:07:58.404Z,33.80
2019-04-25T06:10:29.869Z,34.80
2019-04-25T06:13:01.226Z,35.10
2019-04-25T06:15:33.307Z,34.90
2019-04-25T06:18:04.726Z,33.70
2019-04-25T06:20:38.681Z,35.40
2019-04-25T06:23:10.125Z,33.00
2019-04-25T06:25:40.165Z,32.60
2019-04-25T06:28:13.743Z,32.20
2019-04-25T06:30:44.335Z,33.40
2019-04-25T06:33:14.436Z,34.00
2019-04-25T06:35:45.399Z,34.30
2019-04-25T06:38:18.083Z,32.10
2019-04-25T06:40:47.974Z,32.20
2019-04-25T06:43:17.778Z,31.70
2019-04-25T06:45:50.304Z,32.60
2019-04-25T06:48:23.048Z,31.60
2019-04-25T06:50:53.781Z,34.30
2019-04-25T06:53:25.638Z,32.10
2019-04-25T06:55:54.826Z,32.70
2019-04-25T06:58:26.929Z,32.30
2019-04-25T07:01:00.635Z,31.50
2019-04-25T07:03:27.576Z,31.90
2019-04-25T07:05:57.526Z,32.30
2019-04-25T07:08:27.789Z,35.10
2019-04-25T07:10:57.756Z,33.80
2019-04-25T07:13:28.423Z,34.90
2019-04-25T07:15:59.612Z,30.70
2019-04-25T07:18:32.558Z,32.10
2019-04-25T07:21:01.113Z,30.70
2019-04-25T07:23:33.417Z,29.70
2019-04-25T07:26:05.242Z,30.60
2019-04-25T07:28:36.929Z,27.80
2019-04-25T07:31:08.971Z,27.70
2019-04-25T07:33:43.247Z,28.70
2019-04-25T07:36:11.990Z,27.60
2019-04-25T07:38:43.429Z,28.10
2019-04-25T07:41:14.730Z,27.10
2019-04-25T07:43:44.964Z,27.10
2019-04-25T07:46:15.916Z,28.20
2019-04-25T07:48:45.718Z,26.00
2019-04-25T07:51:16.525Z,25.70
2019-04-25T07:53:46.361Z,25.40
2019-04-25T07:56:16.251Z,24.80
2019-04-25T07:58:52.213Z,24.90
2019-04-25T08:01:18.161Z,26.90
2019-04-25T08:03:47.893Z,24.70
2019-04-25T08:06:17.685Z,23.40
2019-04-25T08:08:47.623Z,23.80
2019-04-25T08:11:17.546Z,22.80
2019-04-25T08:13:49.087Z,22.70
2019-04-25T08:16:20.623Z,21.70
2019-04-25T08:18:51.178Z,22.30
2019-04-25T08:21:21.130Z,22.00
2019-04-25T08:23:53.235Z,21.40
2019-04-25T08:26:23.976Z,21.30
2019-04-25T08:28:57.508Z,21.70
2019-04-25T08:31:25.482Z,21.00
2019-04-25T08:33:55.353Z,21.50
2019-04-25T08:36:25.265Z,21.00
2019-04-25T08:38:54.853Z,20.20
2019-04-25T08:41:24.745Z,20.20
2019-04-25T08:43:54.705Z,19.40
2019-04-25T08:46:28.266Z,19.80
2019-04-25T08:49:02.058Z,19.40
2019-04-25T08:51:34.812Z,18.50
2019-04-25T08:54:06.296Z,18.90
2019-04-25T08:56:36.484Z,18.40
2019-04-25T08:59:08.144Z,18.20
2019-04-25T09:01:41.663Z,17.60
2019-04-25T09:04:13.395Z,18.00
2019-04-25T09:06:44.250Z,19.30
2019-04-25T09:09:14.292Z,18.80
2019-04-25T09:11:46.915Z,18.80
2019-04-25T09:14:15.823Z,18.40
2019-04-25T09:16:46.173Z,18.50
2019-04-25T09:19:16.142Z,16.70
2019-04-25T09:21:49.383Z,17.20
2019-04-25T09:24:17.658Z,18.00
2019-04-25T09:26:47.357Z,16.10
2019-04-25T09:29:19.745Z,16.70
2019-04-25T09:31:48.950Z,16.00
2019-04-25T09:34:19.037Z,16.10
2019-04-25T09:36:48.755Z,16.40
2019-04-25T09:39:20.286Z,16.20
2019-04-25T09:41:50.602Z,16.30
2019-04-25T09:44:22.107Z,16.40
2019-04-25T09:46:51.182Z,15.80
2019-04-25T09:49:23.803Z,15.60
2019-04-25T09:51:55.847Z,15.20
2019-04-25T09:54:28.784Z,15.30
2019-04-25T09:57:00.357Z,15.10
2019-04-25T09:59:30.414Z,15.30
2019-04-25T10:02:00.348Z,14.90
2019-04-25T10:04:30.321Z,14.60
2019-04-25T10:07:00.270Z,15.60
2019-04-25T10:09:33.679Z,14.20
2019-04-25T10:12:06.675Z,14.10
2019-04-25T10:14:39.510Z,15.50
2019-04-25T10:17:18.071Z,15.10
2019-04-25T10:19:48.048Z,14.20
2019-04-25T10:22:17.898Z,14.40
2019-04-25T10:24:59.885Z,13.90
2019-04-25T10:27:20.167Z,13.60
2019-04-25T10:29:53.785Z,13.60
2019-04-25T10:32:23.653Z,13.80
2019-04-25T10:34:53.326Z,13.90
2019-04-25T10:37:23.278Z,14.50
2019-04-25T10:39:55.303Z,14.40
2019-04-25T10:42:25.034Z,14.90
2019-04-25T10:44:56.603Z,15.00
2019-04-25T10:47:29.465Z,15.50
2019-04-25T10:50:03.830Z,16.10
2019-04-25T10:52:33.899Z,15.90
2019-04-25T10:55:04.486Z,16.20
2019-04-25T10:57:34.991Z,15.90
2019-04-25T11:00:09.630Z,16.20
2019-04-25T11:02:39.807Z,16.30
2019-04-25T11:05:13.642Z,16.20
2019-04-25T11:07:44.465Z,16.20
2019-04-25T11:10:15.256Z,16.40
2019-04-25T11:12:47.174Z,16.10
2019-04-25T11:15:17.111Z,16.90
2019-04-25T11:17:47.960Z,16.20
2019-04-25T11:20:20.818Z,16.40
2019-04-25T11:22:50.683Z,16.60
2019-04-25T11:25:20.546Z,16.50
2019-04-25T11:27:50.889Z,16.60
2019-04-25T11:30:23.376Z,17.00
2019-04-25T11:32:54.675Z,17.30
2019-04-25T11:35:24.140Z,17.30
2019-04-25T11:37:56.865Z,17.40
2019-04-25T11:40:32.580Z,17.70
2019-04-25T11:43:04.199Z,17.10
2019-04-25T11:45:37.216Z,16.80
2019-04-25T11:48:07.414Z,17.60
2019-04-25T11:50:53.274Z,17.60
2019-04-25T11:53:25.001Z,17.20
2019-04-25T11:55:55.093Z,18.20
2019-04-25T11:58:26.539Z,18.90
2019-04-25T12:00:57.916Z,19.00
2019-04-25T12:03:28.051Z,18.20
2019-04-25T12:05:57.915Z,17.70
2019-04-25T12:08:27.673Z,17.40
2019-04-25T12:10:57.564Z,17.30
2019-04-25T12:13:27.490Z,17.80
2019-04-25T12:15:57.350Z,18.70
2019-04-25T12:18:27.421Z,17.70
2019-04-25T12:20:57.944Z,18.70
2019-04-25T12:23:27.750Z,18.70
2019-04-25T12:25:57.714Z,19.10
2019-04-25T12:28:27.734Z,19.20
2019-04-25T12:30:57.949Z,18.90
2019-04-25T12:33:27.711Z,18.90
2019-04-25T12:35:58.204Z,18.60
2019-04-25T12:38:28.042Z,19.20
2019-04-25T12:40:57.899Z,18.50
2019-04-25T12:43:29.362Z,19.10
2019-04-25T12:46:00.635Z,18.70
2019-04-25T12:48:30.595Z,18.80
2019-04-25T12:51:00.583Z,17.40
2019-04-25T12:53:30.167Z,17.30
2019-04-25T12:56:00.029Z,17.20
2019-04-25T12:58:29.842Z,18.00
2019-04-25T13:01:00.140Z,17.40
2019-04-25T13:03:29.938Z,16.50
2019-04-25T13:05:59.904Z,17.50
2019-04-25T13:08:29.725Z,17.40
2019-04-25T13:11:07.885Z,16.80
2019-04-25T13:13:33.751Z,17.60
2019-04-25T13:16:04.369Z,17.20
2019-04-25T13:18:34.325Z,16.90
2019-04-25T13:21:05.409Z,16.30
2019-04-25T13:23:35.394Z,16.80
2019-04-25T13:26:05.442Z,17.80
2019-04-25T13:28:37.312Z,17.60
2019-04-25T13:31:12.355Z,17.50
2019-04-25T13:33:43.269Z,17.20
2019-04-25T13:36:15.034Z,16.70
2019-04-25T13:38:45.246Z,16.40
2019-04-25T13:41:15.110Z,16.00
2019-04-25T13:43:44.821Z,16.40
2019-04-25T13:46:18.852Z,16.20
2019-04-25T13:48:47.196Z,16.70
2019-04-25T13:51:17.197Z,16.50
2019-04-25T13:53:47.085Z,16.50
2019-04-25T13:56:17.816Z,16.80
2019-04-25T13:58:47.856Z,16.20
2019-04-25T14:01:21.057Z,16.40
2019-04-25T14:03:51.000Z,16.90
2019-04-25T14:06:22.264Z,17.10
2019-04-25T14:08:53.400Z,16.60
2019-04-25T14:11:24.099Z,16.10
2019-04-25T14:13:54.282Z,16.40
2019-04-25T14:16:27.029Z,17.40
2019-04-25T14:18:58.357Z,16.00
2019-04-25T14:21:27.824Z,16.00
2019-04-25T14:23:57.833Z,15.90
2019-04-25T14:26:29.087Z,15.40
2019-04-25T14:28:58.852Z,15.40
2019-04-25T14:31:41.049Z,15.70
2019-04-25T14:34:00.161Z,16.30
2019-04-25T14:36:30.255Z,16.20
2019-04-25T14:39:00.172Z,16.20
2019-04-25T14:41:30.226Z,16.00
2019-04-25T14:44:00.067Z,16.60
2019-04-25T14:46:30.009Z,16.60
2019-04-25T14:48:59.943Z,16.80
2019-04-25T14:51:30.587Z,16.80
2019-04-25T14:54:02.616Z,16.30
2019-04-25T14:56:33.129Z,16.90
2019-04-25T14:59:04.492Z,17.50
2019-04-25T15:01:44.421Z,18.50
2019-04-25T15:04:05.012Z,19.20
2019-04-25T15:06:34.862Z,20.00
2019-04-25T15:09:07.219Z,20.40
2019-04-25T15:11:37.830Z,21.30
2019-04-25T15:14:07.847Z,21.30
2019-04-25T15:16:37.366Z,21.60
2019-04-25T15:19:07.372Z,21.80
2019-04-25T15:21:37.304Z,22.50
2019-04-25T15:24:07.198Z,22.60
2019-04-25T15:26:37.080Z,22.50
2019-04-25T15:29:06.970Z,22.60
2019-04-25T15:31:37.031Z,22.90
2019-04-25T15:34:07.065Z,22.70
2019-04-25T15:36:39.109Z,23.10
2019-04-25T15:39:10.899Z,23.50
2019-04-25T15:41:41.647Z,23.40
2019-04-25T15:44:13.198Z,23.50
2019-04-25T15:46:43.555Z,23.70
2019-04-25T15:49:13.430Z,23.50
2019-04-25T15:51:43.361Z,24.00
2019-04-25T15:54:13.241Z,23.90
2019-04-25T15:56:43.177Z,24.20
2019-04-25T15:59:16.140Z,25.10
2019-04-25T16:01:46.092Z,25.00
2019-04-25T16:04:15.927Z,25.10
2019-04-25T16:06:45.758Z,25.40
2019-04-25T16:09:15.645Z,25.10
2019-04-25T16:11:45.489Z,25.20
2019-04-25T16:14:15.485Z,25.40
2019-04-25T16:16:45.380Z,25.70
2019-04-25T16:19:15.301Z,25.90
2019-04-25T16:21:45.185Z,25.90
2019-04-25T16:24:15.060Z,26.20
2019-04-25T16:26:44.894Z,26.80
2019-04-25T16:29:14.902Z,26.60
2019-04-25T16:31:44.761Z,26.50
2019-04-25T16:34:14.683Z,26.90
2019-04-25T16:36:44.580Z,26.90
2019-04-25T16:39:16.038Z,27.10
2019-04-25T16:41:47.671Z,27.90
2019-04-25T16:44:19.071Z,27.50
2019-04-25T16:46:48.843Z,27.50
2019-04-25T16:49:18.696Z,27.90
2019-04-25T16:51:48.548Z,28.40
2019-04-25T16:54:20.004Z,27.90
2019-04-25T16:56:49.892Z,27.90
2019-04-25T16:59:19.746Z,28.70
2019-04-25T17:01:49.581Z,28.70
2019-04-25T17:04:19.973Z,28.60
2019-04-25T17:06:49.968Z,29.10
2019-04-25T17:09:20.103Z,29.40
2019-04-25T17:11:49.978Z,29.30
2019-04-25T17:14:21.240Z,29.30
2019-04-25T17:16:53.282Z,29.60
2019-04-25T17:19:24.731Z,29.30
2019-04-25T17:21:54.559Z,29.70
2019-04-25T17:24:24.526Z,29.50
2019-04-25T17:26:54.408Z,29.50
2019-04-25T17:29:24.240Z,30.00
2019-04-25T17:31:55.673Z,30.40
2019-04-25T17:34:27.170Z,30.40
2019-04-25T17:36:59.661Z,30.30
2019-04-25T17:39:31.139Z,31.40
2019-04-25T17:42:01.965Z,30.60
2019-04-25T17:44:32.773Z,30.60
2019-04-25T17:47:06.485Z,31.50
2019-04-25T17:49:34.403Z,31.00
2019-04-25T17:52:04.267Z,31.30
2019-04-25T17:54:34.253Z,32.30
2019-04-25T17:57:04.340Z,33.60
2019-04-25T17:59:34.746Z,33.20
2019-04-25T18:02:04.828Z,34.00
2019-04-25T18:04:35.388Z,34.20
2019-04-25T18:07:05.794Z,33.70
2019-04-25T18:09:36.729Z,33.40
2019-04-25T18:12:06.852Z,33.70
2019-04-25T18:14:36.744Z,34.80
2019-04-25T18:17:07.660Z,34.90
2019-04-25T18:19:39.017Z,34.60
2019-04-25T18:22:10.536Z,33.30
2019-04-25T18:24:41.968Z,33.60
2019-04-25T18:27:13.356Z,33.40
2019-04-25T18:29:43.710Z,33.70
2019-04-25T18:32:13.857Z,34.40
2019-04-25T18:34:46.405Z,34.40
2019-04-25T18:37:17.827Z,34.30
2019-04-25T18:39:49.184Z,33.90
2019-04-25T18:42:20.871Z,33.90
2019-04-25T18:44:50.560Z,34.30
2019-04-25T18:47:20.447Z,34.60
2019-04-25T18:49:50.389Z,34.30
2019-04-25T18:52:21.913Z,34.40
2019-04-25T18:54:53.411Z,35.00
2019-04-25T18:57:24.801Z,35.40
2019-04-25T18:59:56.214Z,35.40
2019-04-25T19:02:27.593Z,35.50
2019-04-25T19:04:59.097Z,35.40
2019-04-25T19:07:29.051Z,35.30
2019-04-25T19:09:58.846Z,35.50
2019-04-25T19:12:28.627Z,35.90
2019-04-25T19:14:58.604Z,35.40
2019-04-25T19:17:28.468Z,34.70
2019-04-25T19:19:58.254Z,34.70
2019-04-25T19:22:28.239Z,35.10
2019-04-25T19:24:58.123Z,35.30
2019-04-25T19:27:28.025Z,35.30
2019-04-25T19:29:57.983Z,35.00
2019-04-25T19:32:28.381Z,34.40
2019-04-25T19:34:58.171Z,35.40
2019-04-25T19:37:28.036Z,35.20
2019-04-25T19:39:59.524Z,34.90
2019-04-25T19:42:30.884Z,34.40
2019-04-25T19:45:00.800Z,35.30
2019-04-25T19:47:30.848Z,35.50
2019-04-25T19:50:00.620Z,35.40
2019-04-25T19:52:30.527Z,35.50
2019-04-25T19:55:00.473Z,35.80
2019-04-25T19:57:30.338Z,35.90
2019-04-25T20:00:00.233Z,36.20
2019-04-25T20:02:31.577Z,36.40
2019-04-25T20:05:03.205Z,36.40
2019-04-25T20:07:34.620Z,36.40
2019-04-25T20:10:07.228Z,36.60
2019-04-25T20:12:38.816Z,36.40
2019-04-25T20:15:09.751Z,36.80
2019-04-25T20:17:39.660Z,36.40
2019-04-25T20:20:09.959Z,36.70
2019-04-25T20:22:39.835Z,37.10
2019-04-25T20:25:10.650Z,36.60
2019-04-25T20:27:40.527Z,36.40
2019-04-25T20:30:10.841Z,36.70
2019-04-25T20:32:40.701Z,37.00
2019-04-25T20:35:10.777Z,37.00
2019-04-25T20:37:40.643Z,37.00
2019-04-25T20:40:10.623Z,37.00
2019-04-25T20:42:40.355Z,37.30
2019-04-25T20:45:10.468Z,38.30
2019-04-25T20:47:40.424Z,37.70
2019-04-25T20:50:10.406Z,37.90
2019-04-25T20:52:40.207Z,37.60
2019-04-25T20:55:10.081Z,37.90
2019-04-25T20:57:39.896Z,37.20
2019-04-25T21:00:10.857Z,37.20
2019-04-25T21:02:40.875Z,37.00
2019-04-25T21:05:10.735Z,37.30
2019-04-25T21:07:40.453Z,37.40
2019-04-25T21:10:10.670Z,37.50
2019-04-25T21:12:40.384Z,37.70
2019-04-25T21:15:12.275Z,37.40
2019-04-25T21:17:43.683Z,37.00
2019-04-25T21:20:13.538Z,37.10
2019-04-25T21:22:43.357Z,37.60
2019-04-25T21:25:14.542Z,37.30
2019-04-25T21:27:44.351Z,37.40
2019-04-25T21:30:14.530Z,37.50
2019-04-25T21:32:45.888Z,37.30
2019-04-25T21:35:16.167Z,37.40
2019-04-25T21:37:45.924Z,38.10
2019-04-25T21:40:17.683Z,38.40
2019-04-25T21:42:49.092Z,38.20
2019-04-25T21:45:19.011Z,37.50
2019-04-25T21:47:48.964Z,38.90
2019-04-25T21:50:20.073Z,38.00
2019-04-25T21:52:50.143Z,37.10
2019-04-25T21:55:20.339Z,37.30
2019-04-25T21:57:50.425Z,38.30
2019-04-25T22:00:22.616Z,38.40
2019-04-25T22:02:54.784Z,39.40
2019-04-25T22:05:25.636Z,40.00
2019-04-25T22:07:56.209Z,39.70
2019-04-25T22:10:26.628Z,39.70
2019-04-25T22:13:10.523Z,40.30
2019-04-25T22:15:28.061Z,41.40
2019-04-25T22:17:58.268Z,41.30
2019-04-25T22:20:29.300Z,41.50
2019-04-25T22:23:00.105Z,41.60
2019-04-25T22:25:30.169Z,41.80
2019-04-25T22:28:01.106Z,42.40
2019-04-25T22:30:31.344Z,42.50
2019-04-25T22:33:03.650Z,42.20
2019-04-25T22:35:35.703Z,42.20
2019-04-25T22:38:06.397Z,41.70
2019-04-25T22:40:36.265Z,41.40
2019-04-25T22:43:06.376Z,41.30
2019-04-25T22:45:36.510Z,41.40
2019-04-25T22:48:06.690Z,41.20
2019-04-25T22:50:36.670Z,40.60
2019-04-25T22:53:06.588Z,40.80
2019-04-25T22:55:36.720Z,40.60
2019-04-25T22:58:06.599Z,40.60
2019-04-25T23:00:37.909Z,40.40
2019-04-25T23:03:09.742Z,40.70
2019-04-25T23:05:41.187Z,40.90
2019-04-25T23:08:11.314Z,40.90
2019-04-25T23:10:41.135Z,41.10
2019-04-25T23:13:11.027Z,41.50
2019-04-25T23:15:40.880Z,40.80
2019-04-25T23:18:11.406Z,40.40
2019-04-25T23:20:41.384Z,41.20
2019-04-25T23:23:11.742Z,40.90
2019-04-25T23:25:43.280Z,41.40
2019-04-25T23:28:14.610Z,42.10
2019-04-25T23:30:48.011Z,41.80
2019-04-25T23:33:17.723Z,42.00
2019-04-25T23:35:49.231Z,41.80
2019-04-25T23:38:19.068Z,41.70
2019-04-25T23:40:48.994Z,42.00
2019-04-25T23:43:18.973Z,42.00
2019-04-25T23:45:48.823Z,41.80
2019-04-25T23:48:18.793Z,41.70
2019-04-25T23:50:48.622Z,42.00
2019-04-25T23:53:18.329Z,41.90
2019-04-25T23:55:48.281Z,41.70
2019-04-25T23:58:18.148Z,41.60
